Time;durP1;ratioP1;P1;durP2;ratioP2;P2;SDS_P1;SDS_P2;PMS_P1;PMS_P2;Temp;Humidity;BMP_temperature;BMP_pressure;BME280_temperature;BME280_humidity;BME280_pressure;Samples;Min_cycle;Max_cycle;Signal;HPM_P1;HPM_P2
2020/12/07 00:02:18;;;;;;;;;;;6.50;84.00;;;;;;4971229;28;20365;-44
2020/12/07 00:04:45;;;;;;;;;;;6.50;84.00;;;;;;4968590;28;19925;-45
2020/12/07 00:07:13;;;;;;;;;;;6.50;84.00;;;;;;4969869;28;20259;-45
2020/12/07 00:09:40;;;;;;;;;;;6.50;83.90;;;;;;4966703;28;19930;-43
2020/12/07 00:12:07;;;;;;;;;;;6.50;83.90;;;;;;4963949;28;19933;-43
2020/12/07 00:14:34;;;;;;;;;;;6.50;83.90;;;;;;4946168;28;20368;-43
2020/12/07 00:17:02;;;;;;;;;;;6.50;83.80;;;;;;4956708;28;19951;-43
2020/12/07 00:19:29;;;;;;;;;;;6.50;83.70;;;;;;4961622;28;20401;-43
2020/12/07 00:21:58;;;;;;;;;;;6.60;83.70;;;;;;4963657;28;19930;-43
2020/12/07 00:24:25;;;;;;;;;;;6.50;83.60;;;;;;4941675;28;20438;-43
2020/12/07 00:26:52;;;;;;;;;;;6.50;83.60;;;;;;4936358;28;20390;-43
2020/12/07 00:29:19;;;;;;;;;;;6.50;83.50;;;;;;4956426;28;20031;-43
2020/12/07 00:31:47;;;;;;;;;;;6.60;83.40;;;;;;4966562;28;20448;-43
2020/12/07 00:34:14;;;;;;;;;;;6.60;83.40;;;;;;4971726;28;20432;-44
2020/12/07 00:36:44;;;;;;;;;;;6.60;83.40;;;;;;4967601;28;20274;-44
2020/12/07 00:39:11;;;;;;;;;;;6.60;83.40;;;;;;4952984;28;19930;-43
2020/12/07 00:41:38;;;;;;;;;;;6.60;83.40;;;;;;4965792;28;19929;-43
2020/12/07 00:44:06;;;;;;;;;;;6.60;83.40;;;;;;4962958;28;20039;-43
2020/12/07 00:46:34;;;;;;;;;;;6.60;83.40;;;;;;4947001;28;19934;-44
2020/12/07 00:49:02;;;;;;;;;;;6.60;83.50;;;;;;4962130;28;22147;-44
2020/12/07 00:51:29;;;;;;;;;;;6.60;83.60;;;;;;4959924;28;20034;-44
2020/12/07 00:53:57;;;;;;;;;;;6.60;83.60;;;;;;4963230;28;19929;-44
2020/12/07 00:56:26;;;;;;;;;;;6.60;83.70;;;;;;4958785;28;20015;-44
2020/12/07 00:58:53;;;;;;;;;;;6.60;83.70;;;;;;4965767;28;20527;-43
2020/12/07 01:01:20;;;;;;;;;;;6.60;83.70;;;;;;4964082;28;19925;-44
2020/12/07 01:03:48;;;;;;;;;;;6.60;83.70;;;;;;4959820;28;19934;-44
2020/12/07 01:06:15;;;;;;;;;;;6.60;83.80;;;;;;4965126;28;19929;-43
2020/12/07 01:08:42;;;;;;;;;;;6.60;83.70;;;;;;4959799;28;20072;-44
2020/12/07 01:11:13;;;;;;;;;;;6.60;83.80;;;;;;4968878;28;19934;-44
2020/12/07 01:13:40;;;;;;;;;;;6.60;83.70;;;;;;4959932;28;20569;-43
2020/12/07 01:16:07;;;;;;;;;;;6.60;83.60;;;;;;4967670;28;19938;-43
2020/12/07 01:18:34;;;;;;;;;;;6.60;83.70;;;;;;4960637;28;20314;-43
2020/12/07 01:21:02;;;;;;;;;;;6.60;83.70;;;;;;4964009;28;20501;-44
2020/12/07 01:23:29;;;;;;;;;;;6.60;83.70;;;;;;4964051;28;20425;-43
2020/12/07 01:25:57;;;;;;;;;;;6.60;83.70;;;;;;4963363;28;19965;-44
2020/12/07 01:28:24;;;;;;;;;;;6.60;83.70;;;;;;4940149;28;20393;-44
2020/12/07 01:30:51;;;;;;;;;;;6.50;83.90;;;;;;4940498;28;20262;-44
2020/12/07 01:33:18;;;;;;;;;;;6.50;83.90;;;;;;4964734;28;19961;-45
2020/12/07 01:35:45;;;;;;;;;;;6.50;83.80;;;;;;4964034;28;19933;-44
2020/12/07 01:38:15;;;;;;;;;;;6.50;83.90;;;;;;4962928;28;20215;-44
2020/12/07 01:40:42;;;;;;;;;;;6.60;83.80;;;;;;4965279;28;20366;-43
2020/12/07 01:43:10;;;;;;;;;;;6.50;83.90;;;;;;4966863;28;19936;-43
2020/12/07 01:45:38;;;;;;;;;;;6.50;83.90;;;;;;4962737;28;19937;-44
2020/12/07 01:48:05;;;;;;;;;;;6.50;83.90;;;;;;4951044;28;19932;-45
2020/12/07 01:50:32;;;;;;;;;;;6.50;84.00;;;;;;4967594;28;19992;-44
2020/12/07 01:53:00;;;;;;;;;;;6.50;84.20;;;;;;4962659;28;19933;-46
2020/12/07 01:55:27;;;;;;;;;;;6.50;84.10;;;;;;4965100;28;20423;-45
2020/12/07 01:57:55;;;;;;;;;;;6.50;84.00;;;;;;4959253;28;20300;-45
2020/12/07 02:00:23;;;;;;;;;;;6.50;84.00;;;;;;4968720;28;20468;-44
2020/12/07 02:02:51;;;;;;;;;;;6.50;84.10;;;;;;4972437;28;20360;-45
2020/12/07 02:05:18;;;;;;;;;;;6.50;84.10;;;;;;4966363;28;19925;-44
2020/12/07 02:07:45;;;;;;;;;;;6.50;84.10;;;;;;4956253;28;19976;-44
2020/12/07 02:10:12;;;;;;;;;;;6.50;84.10;;;;;;4965038;28;19969;-45
2020/12/07 02:12:39;;;;;;;;;;;6.50;84.00;;;;;;4944151;28;19932;-45
2020/12/07 02:15:07;;;;;;;;;;;6.50;84.00;;;;;;4960669;28;19929;-46
2020/12/07 02:17:34;;;;;;;;;;;6.50;84.00;;;;;;4957412;28;20352;-46
2020/12/07 02:20:01;;;;;;;;;;;6.60;83.90;;;;;;4955576;28;20281;-45
2020/12/07 02:22:30;;;;;;;;;;;6.60;84.00;;;;;;4955891;28;19972;-44
2020/12/07 02:24:57;;;;;;;;;;;6.50;84.00;;;;;;4941474;28;19932;-46
2020/12/07 02:27:25;;;;;;;;;;;6.50;83.90;;;;;;4957670;28;20306;-45
2020/12/07 02:29:52;;;;;;;;;;;6.60;83.90;;;;;;4944935;28;19937;-44
2020/12/07 02:32:20;;;;;;;;;;;6.50;83.90;;;;;;4967132;28;19934;-45
2020/12/07 02:34:48;;;;;;;;;;;6.60;83.90;;;;;;4961697;28;19926;-42
2020/12/07 02:37:15;;;;;;;;;;;6.60;83.80;;;;;;4966852;28;19925;-45
2020/12/07 02:39:45;;;;;;;;;;;6.60;83.70;;;;;;4958968;28;21257;-45
2020/12/07 02:42:12;;;;;;;;;;;6.60;83.70;;;;;;4960501;28;19933;-45
2020/12/07 02:44:39;;;;;;;;;;;6.60;83.70;;;;;;4943670;28;19925;-44
2020/12/07 02:47:07;;;;;;;;;;;6.60;83.70;;;;;;4956990;28;19934;-45
2020/12/07 02:49:35;;;;;;;;;;;6.60;83.70;;;;;;4937980;28;19932;-43
2020/12/07 02:52:02;;;;;;;;;;;6.60;83.70;;;;;;4959337;28;19929;-45
2020/12/07 02:54:30;;;;;;;;;;;6.60;83.70;;;;;;4957101;28;19937;-45
2020/12/07 02:57:00;;;;;;;;;;;6.60;83.70;;;;;;4944292;28;20374;-45
2020/12/07 02:59:28;;;;;;;;;;;6.60;83.70;;;;;;4958279;28;19948;-45
2020/12/07 03:01:54;;;;;;;;;;;6.50;83.70;;;;;;4950749;28;19926;-44
2020/12/07 03:04:22;;;;;;;;;;;6.60;83.90;;;;;;4960151;28;19926;-45
2020/12/07 03:06:50;;;;;;;;;;;6.60;83.80;;;;;;4961635;28;19933;-45
2020/12/07 03:09:16;;;;;;;;;;;6.60;83.90;;;;;;4964610;28;19969;-46
2020/12/07 03:11:44;;;;;;;;;;;6.50;83.80;;;;;;4956345;28;19926;-44
2020/12/07 03:14:11;;;;;;;;;;;6.50;83.80;;;;;;4959735;28;20028;-46
2020/12/07 03:16:39;;;;;;;;;;;6.60;83.90;;;;;;4961182;28;19933;-46
2020/12/07 03:19:10;;;;;;;;;;;6.60;83.90;;;;;;4926141;28;19956;-44
2020/12/07 03:21:38;;;;;;;;;;;6.50;83.90;;;;;;4953034;28;19930;-44
2020/12/07 03:24:05;;;;;;;;;;;6.60;83.80;;;;;;4969451;28;20022;-45
2020/12/07 03:26:34;;;;;;;;;;;6.50;83.70;;;;;;4968845;28;19973;-44
2020/12/07 03:29:04;;;;;;;;;;;6.50;83.60;;;;;;4968825;28;19949;-45
2020/12/07 03:31:33;;;;;;;;;;;6.50;83.80;;;;;;4956249;28;19932;-45
2020/12/07 03:34:02;;;;;;;;;;;6.50;83.70;;;;;;4968779;28;20008;-45
2020/12/07 03:36:29;;;;;;;;;;;6.50;83.70;;;;;;4962730;28;20007;-46
2020/12/07 03:38:57;;;;;;;;;;;6.50;83.90;;;;;;4960530;28;19930;-46
2020/12/07 03:41:24;;;;;;;;;;;6.40;83.70;;;;;;4961846;28;19937;-46
2020/12/07 03:43:52;;;;;;;;;;;6.30;83.90;;;;;;4967806;28;19936;-42
2020/12/07 03:46:19;;;;;;;;;;;6.30;84.00;;;;;;4966052;28;19930;-45
2020/12/07 03:48:46;;;;;;;;;;;6.30;83.90;;;;;;4952573;28;19951;-42
2020/12/07 03:51:13;;;;;;;;;;;6.20;83.90;;;;;;4970115;28;19925;-44
2020/12/07 03:53:42;;;;;;;;;;;6.10;84.10;;;;;;4958044;28;20345;-45
2020/12/07 03:56:10;;;;;;;;;;;6.10;84.10;;;;;;4963046;28;19936;-46
2020/12/07 03:58:40;;;;;;;;;;;6.10;84.20;;;;;;4961289;28;19966;-45
2020/12/07 04:01:09;;;;;;;;;;;6.10;84.10;;;;;;4959726;28;19929;-46
2020/12/07 04:03:39;;;;;;;;;;;6.00;84.20;;;;;;4964108;28;19934;-44
2020/12/07 04:06:18;;;;;;;;;;;6.00;84.10;;;;;;4961389;28;19933;-44
2020/12/07 04:08:45;;;;;;;;;;;5.90;84.20;;;;;;4958181;28;19976;-44
2020/12/07 04:11:13;;;;;;;;;;;5.90;84.10;;;;;;4956808;28;20044;-45
2020/12/07 04:13:40;;;;;;;;;;;5.90;84.40;;;;;;4964043;28;19930;-45
2020/12/07 04:16:08;;;;;;;;;;;5.90;84.50;;;;;;4971218;28;19930;-45
2020/12/07 04:18:35;;;;;;;;;;;5.90;84.60;;;;;;4971575;28;20348;-45
2020/12/07 04:21:03;;;;;;;;;;;5.90;84.70;;;;;;4966051;28;19939;-44
2020/12/07 04:23:30;;;;;;;;;;;5.90;84.60;;;;;;4961163;28;20072;-45
2020/12/07 04:25:58;;;;;;;;;;;5.90;84.60;;;;;;4959800;28;20325;-45
2020/12/07 04:28:26;;;;;;;;;;;5.90;84.50;;;;;;4970902;28;19999;-46
2020/12/07 04:30:55;;;;;;;;;;;5.90;84.10;;;;;;4962353;28;19941;-46
2020/12/07 04:33:23;;;;;;;;;;;5.90;84.10;;;;;;4967875;28;20012;-46
2020/12/07 04:35:50;;;;;;;;;;;5.80;84.20;;;;;;4964323;28;19930;-47
2020/12/07 04:38:18;;;;;;;;;;;5.80;84.40;;;;;;4949298;28;19937;-42
2020/12/07 04:40:45;;;;;;;;;;;5.80;84.40;;;;;;4971199;28;20258;-45
2020/12/07 04:43:13;;;;;;;;;;;5.80;84.50;;;;;;4952133;28;20005;-45
2020/12/07 04:45:43;;;;;;;;;;;5.90;84.40;;;;;;4971215;28;19929;-45
2020/12/07 04:48:11;;;;;;;;;;;5.80;84.20;;;;;;4958715;28;20915;-44
2020/12/07 04:50:38;;;;;;;;;;;5.80;84.40;;;;;;4959293;28;19929;-46
2020/12/07 04:53:05;;;;;;;;;;;5.70;84.50;;;;;;4958473;28;19969;-43
2020/12/07 04:55:32;;;;;;;;;;;5.70;84.80;;;;;;4960319;28;19941;-46
2020/12/07 04:58:01;;;;;;;;;;;5.70;84.80;;;;;;4963029;28;20547;-45
2020/12/07 05:00:32;;;;;;;;;;;5.70;84.90;;;;;;4962086;28;19929;-44
2020/12/07 05:02:59;;;;;;;;;;;5.80;85.00;;;;;;4961402;28;20016;-44
2020/12/07 05:05:27;;;;;;;;;;;5.80;84.70;;;;;;4957108;28;19929;-44
2020/12/07 05:07:55;;;;;;;;;;;5.80;84.70;;;;;;4962636;28;19933;-45
2020/12/07 05:10:32;;;;;;;;;;;5.80;84.50;;;;;;4961675;28;19933;-42
2020/12/07 05:13:16;;;;;;;;;;;5.80;84.60;;;;;;4969096;28;19930;-46
2020/12/07 05:15:44;;;;;;;;;;;5.80;84.60;;;;;;4966856;28;19930;-45
2020/12/07 05:18:11;;;;;;;;;;;5.80;84.60;;;;;;4957268;28;20278;-45
2020/12/07 05:20:38;;;;;;;;;;;5.70;84.70;;;;;;4962410;28;20293;-43
2020/12/07 05:23:05;;;;;;;;;;;5.80;84.90;;;;;;4961396;28;19980;-46
2020/12/07 05:25:34;;;;;;;;;;;5.70;84.70;;;;;;4961554;28;19929;-46
2020/12/07 05:28:01;;;;;;;;;;;5.70;84.60;;;;;;4963596;28;19925;-45
2020/12/07 05:30:40;;;;;;;;;;;5.60;84.40;;;;;;4961574;28;20460;-46
2020/12/07 05:33:08;;;;;;;;;;;5.60;84.70;;;;;;4962090;28;20393;-46
2020/12/07 05:35:39;;;;;;;;;;;5.60;84.80;;;;;;4950660;28;19933;-44
2020/12/07 05:38:07;;;;;;;;;;;5.60;84.80;;;;;;4941461;28;20213;-44
2020/12/07 05:40:34;;;;;;;;;;;5.60;84.90;;;;;;4959240;28;19926;-45
2020/12/07 05:43:02;;;;;;;;;;;5.70;85.00;;;;;;4960345;28;20023;-45
2020/12/07 05:45:30;;;;;;;;;;;5.60;85.00;;;;;;4957807;28;19925;-45
2020/12/07 05:47:57;;;;;;;;;;;5.70;84.90;;;;;;4965206;28;19964;-44
2020/12/07 05:50:27;;;;;;;;;;;5.70;85.00;;;;;;4960450;28;20040;-43
2020/12/07 05:52:59;;;;;;;;;;;5.70;84.90;;;;;;4962343;28;19934;-43
2020/12/07 05:55:26;;;;;;;;;;;5.70;85.00;;;;;;4957437;28;19933;-45
2020/12/07 05:57:56;;;;;;;;;;;5.70;85.00;;;;;;4969332;28;19946;-46
2020/12/07 06:00:24;;;;;;;;;;;5.70;85.00;;;;;;4960361;28;20385;-42
2020/12/07 06:02:54;;;;;;;;;;;5.70;85.00;;;;;;4953230;28;19999;-45
2020/12/07 06:05:22;;;;;;;;;;;5.80;85.10;;;;;;4963941;28;19925;-44
2020/12/07 06:07:55;;;;;;;;;;;5.80;84.90;;;;;;4960396;28;19941;-43
2020/12/07 06:10:24;;;;;;;;;;;5.80;84.90;;;;;;4964733;28;19960;-45
2020/12/07 06:12:52;;;;;;;;;;;5.80;84.80;;;;;;4963501;28;22565;-45
2020/12/07 06:15:20;;;;;;;;;;;5.80;85.00;;;;;;4971605;28;20235;-43
2020/12/07 06:17:49;;;;;;;;;;;5.80;84.90;;;;;;4973711;28;19925;-43
2020/12/07 06:20:27;;;;;;;;;;;5.80;84.70;;;;;;4969790;28;19933;-45
2020/12/07 06:22:56;;;;;;;;;;;5.80;84.80;;;;;;4970673;28;20393;-44
2020/12/07 06:25:26;;;;;;;;;;;5.80;84.60;;;;;;4960554;28;20301;-45
2020/12/07 06:27:57;;;;;;;;;;;5.80;84.70;;;;;;4961322;28;19981;-44
2020/12/07 06:30:29;;;;;;;;;;;5.80;84.60;;;;;;4964451;28;19987;-44
2020/12/07 06:32:56;;;;;;;;;;;5.80;84.60;;;;;;4970164;28;19972;-45
2020/12/07 06:35:26;;;;;;;;;;;5.80;84.60;;;;;;4958302;28;19937;-45
2020/12/07 06:37:54;;;;;;;;;;;5.70;84.50;;;;;;4966646;28;20389;-44
2020/12/07 06:40:24;;;;;;;;;;;5.70;84.60;;;;;;4966322;28;19933;-43
2020/12/07 06:42:51;;;;;;;;;;;5.70;84.80;;;;;;4955832;28;19933;-45
2020/12/07 06:45:27;;;;;;;;;;;5.70;84.80;;;;;;4966130;28;19936;-45
2020/12/07 06:47:55;;;;;;;;;;;5.70;84.90;;;;;;4958718;28;20378;-45
2020/12/07 06:50:28;;;;;;;;;;;5.70;84.70;;;;;;4968647;28;19926;-45
2020/12/07 06:52:57;;;;;;;;;;;5.70;84.70;;;;;;4944786;28;19932;-46
2020/12/07 06:55:25;;;;;;;;;;;5.70;84.80;;;;;;4966330;28;19926;-46
2020/12/07 06:57:52;;;;;;;;;;;5.60;84.80;;;;;;4958553;28;20024;-43
2020/12/07 07:00:27;;;;;;;;;;;5.70;84.90;;;;;;4962701;28;20020;-45
2020/12/07 07:02:56;;;;;;;;;;;5.70;84.70;;;;;;4954016;28;19934;-44
2020/12/07 07:05:24;;;;;;;;;;;5.70;84.70;;;;;;4948131;28;19930;-43
2020/12/07 07:07:52;;;;;;;;;;;5.70;84.80;;;;;;4951362;28;19979;-44
2020/12/07 07:10:19;;;;;;;;;;;5.80;84.80;;;;;;4953344;28;19930;-46
2020/12/07 07:12:47;;;;;;;;;;;5.80;84.60;;;;;;4958850;28;20330;-45
2020/12/07 07:15:19;;;;;;;;;;;5.80;84.20;;;;;;4947536;28;19926;-43
2020/12/07 07:17:49;;;;;;;;;;;5.70;84.40;;;;;;4955350;28;20404;-46
2020/12/07 07:20:17;;;;;;;;;;;5.70;84.40;;;;;;4965748;28;19976;-45
2020/12/07 07:22:49;;;;;;;;;;;5.80;84.40;;;;;;4966181;28;20440;-45
2020/12/07 07:28:06;;;;;;;;;;;5.80;84.40;;;;;;4959712;28;20289;-43
2020/12/07 07:30:33;;;;;;;;;;;5.80;84.40;;;;;;4968330;28;20385;-44
2020/12/07 07:33:01;;;;;;;;;;;5.80;84.30;;;;;;4960762;28;19940;-44
2020/12/07 07:35:29;;;;;;;;;;;5.80;84.00;;;;;;4962284;28;19973;-43
2020/12/07 07:37:57;;;;;;;;;;;5.80;83.80;;;;;;4967416;28;20467;-45
2020/12/07 07:40:26;;;;;;;;;;;5.80;83.80;;;;;;4964638;28;19937;-45
2020/12/07 07:42:55;;;;;;;;;;;5.80;83.80;;;;;;4965988;28;19933;-45
2020/12/07 07:45:24;;;;;;;;;;;5.80;83.80;;;;;;4970267;28;19925;-44
2020/12/07 07:47:57;;;;;;;;;;;5.90;83.90;;;;;;4951879;28;20019;-44
2020/12/07 08:02:19;;;;;;;;;;;5.80;83.60;;;;;;4964321;28;19936;-43
2020/12/07 08:15:57;;;;;;;;;;;5.70;84.20;;;;;;4963316;28;19930;-44
2020/12/07 08:18:37;;;;;;;;;;;5.70;84.10;;;;;;4964341;28;19940;-43
2020/12/07 08:21:05;;;;;;;;;;;5.70;84.20;;;;;;4965261;28;20474;-45
2020/12/07 08:23:33;;;;;;;;;;;5.70;84.10;;;;;;4964296;28;20653;-45
2020/12/07 08:26:01;;;;;;;;;;;5.70;84.40;;;;;;4964328;28;20291;-44
2020/12/07 08:28:30;;;;;;;;;;;5.70;84.40;;;;;;4958561;28;20072;-44
2020/12/07 08:30:59;;;;;;;;;;;5.70;84.30;;;;;;4963559;28;19934;-44
2020/12/07 08:33:27;;;;;;;;;;;5.80;84.20;;;;;;4959381;28;19936;-43
2020/12/07 08:35:55;;;;;;;;;;;5.90;84.20;;;;;;4958860;28;20021;-44
2020/12/07 08:38:24;;;;;;;;;;;5.80;83.90;;;;;;4955227;28;19972;-45
2020/12/07 08:40:51;;;;;;;;;;;5.80;84.00;;;;;;4961075;28;19925;-43
2020/12/07 08:43:18;;;;;;;;;;;5.80;84.00;;;;;;4963485;28;19981;-45
2020/12/07 08:45:47;;;;;;;;;;;5.80;84.20;;;;;;4960239;28;19925;-46
2020/12/07 08:48:14;;;;;;;;;;;5.70;84.20;;;;;;4956631;28;19940;-44
2020/12/07 08:50:41;;;;;;;;;;;5.70;84.60;;;;;;4961237;28;19930;-42
2020/12/07 08:53:08;;;;;;;;;;;5.80;84.60;;;;;;4964352;28;20012;-41
2020/12/07 08:55:36;;;;;;;;;;;5.80;84.50;;;;;;4962507;28;19930;-44
2020/12/07 08:58:05;;;;;;;;;;;5.80;84.40;;;;;;4969088;28;19972;-44
2020/12/07 09:00:32;;;;;;;;;;;5.80;84.60;;;;;;4960084;28;20022;-42
2020/12/07 09:03:00;;;;;;;;;;;5.80;84.70;;;;;;4957521;28;20531;-45
2020/12/07 09:05:29;;;;;;;;;;;5.90;84.70;;;;;;4958674;28;19942;-44
2020/12/07 09:07:57;;;;;;;;;;;6.00;84.50;;;;;;4964875;28;19936;-44
2020/12/07 09:10:25;;;;;;;;;;;6.00;84.20;;;;;;4958009;28;19933;-44
2020/12/07 09:12:53;;;;;;;;;;;6.10;84.20;;;;;;4967117;28;19934;-43
2020/12/07 09:15:21;;;;;;;;;;;6.20;84.00;;;;;;4963393;28;19929;-42
2020/12/07 09:17:50;;;;;;;;;;;6.20;84.00;;;;;;4959764;28;20888;-43
2020/12/07 09:20:18;;;;;;;;;;;6.20;83.40;;;;;;4963056;28;23334;-43
2020/12/07 09:22:46;;;;;;;;;;;6.30;83.10;;;;;;4952343;28;20326;-42
2020/12/07 09:25:16;;;;;;;;;;;6.30;83.20;;;;;;4961526;28;19929;-43
2020/12/07 09:27:43;;;;;;;;;;;6.30;83.10;;;;;;4964890;28;19941;-42
2020/12/07 09:30:11;;;;;;;;;;;6.30;82.90;;;;;;4971338;28;19926;-43
2020/12/07 09:32:39;;;;;;;;;;;6.30;82.90;;;;;;4967516;28;19935;-41
2020/12/07 09:35:09;;;;;;;;;;;6.30;83.10;;;;;;4964399;28;20309;-45
2020/12/07 09:37:37;;;;;;;;;;;6.40;83.20;;;;;;4963971;28;19934;-44
2020/12/07 09:40:05;;;;;;;;;;;6.50;83.10;;;;;;4957852;28;20263;-44
2020/12/07 09:42:33;;;;;;;;;;;6.60;82.80;;;;;;4968588;28;20688;-44
2020/12/07 09:45:02;;;;;;;;;;;6.60;82.70;;;;;;4964756;28;20014;-41
2020/12/07 09:47:29;;;;;;;;;;;6.70;82.50;;;;;;4959763;28;19932;-43
2020/12/07 09:49:56;;;;;;;;;;;6.80;82.20;;;;;;4962457;28;20009;-43
2020/12/07 09:52:23;;;;;;;;;;;6.80;82.10;;;;;;4965753;28;19941;-44
2020/12/07 09:54:50;;;;;;;;;;;6.80;81.90;;;;;;4968120;28;20382;-43
2020/12/07 09:57:18;;;;;;;;;;;6.90;81.50;;;;;;4973949;28;20337;-44
2020/12/07 09:59:48;;;;;;;;;;;6.90;81.50;;;;;;4969505;28;19929;-42
2020/12/07 10:02:15;;;;;;;;;;;7.00;81.60;;;;;;4955083;28;19946;-42
2020/12/07 10:04:43;;;;;;;;;;;7.10;81.70;;;;;;4968897;28;20035;-42
2020/12/07 10:07:11;;;;;;;;;;;7.20;81.40;;;;;;4975549;28;19933;-41
2020/12/07 10:09:40;;;;;;;;;;;7.20;81.40;;;;;;4977510;28;20301;-45
2020/12/07 10:12:10;;;;;;;;;;;7.30;81.00;;;;;;4975308;28;19933;-43
2020/12/07 10:14:37;;;;;;;;;;;7.40;80.70;;;;;;4968843;28;20028;-45
2020/12/07 10:17:05;;;;;;;;;;;7.40;81.00;;;;;;4970819;28;19929;-45
2020/12/07 10:19:32;;;;;;;;;;;7.50;80.60;;;;;;4968410;28;19926;-44
2020/12/07 10:22:04;;;;;;;;;;;7.50;80.20;;;;;;4969986;28;19930;-45
2020/12/07 10:24:31;;;;;;;;;;;7.50;79.40;;;;;;4965693;28;19964;-44
2020/12/07 10:26:59;;;;;;;;;;;7.40;79.50;;;;;;4977226;28;20321;-44
2020/12/07 10:29:27;;;;;;;;;;;7.40;79.80;;;;;;4966022;28;19995;-45
2020/12/07 10:31:56;;;;;;;;;;;7.50;79.80;;;;;;4964460;28;20439;-44
2020/12/07 10:34:23;;;;;;;;;;;7.40;79.30;;;;;;4976532;28;19929;-45
2020/12/07 10:36:50;;;;;;;;;;;7.50;78.90;;;;;;4963554;28;19925;-43
2020/12/07 10:39:18;;;;;;;;;;;7.50;78.80;;;;;;4966177;28;20021;-46
2020/12/07 10:41:46;;;;;;;;;;;7.60;78.40;;;;;;4964397;28;19987;-46
2020/12/07 10:44:14;;;;;;;;;;;7.60;78.80;;;;;;4964046;28;19929;-45
2020/12/07 10:46:44;;;;;;;;;;;7.60;78.50;;;;;;4974240;28;20348;-46
2020/12/07 10:49:12;;;;;;;;;;;7.70;78.70;;;;;;4969527;28;19925;-44
2020/12/07 10:51:41;;;;;;;;;;;7.80;78.70;;;;;;4967850;28;20373;-45
2020/12/07 10:54:08;;;;;;;;;;;7.80;78.30;;;;;;4966482;28;19930;-45
2020/12/07 10:56:36;;;;;;;;;;;7.80;77.80;;;;;;4961911;28;20049;-45
2020/12/07 10:59:04;;;;;;;;;;;7.80;77.50;;;;;;4947659;28;19933;-45
2020/12/07 11:01:31;;;;;;;;;;;7.80;77.50;;;;;;4968083;28;19984;-44
2020/12/07 11:03:58;;;;;;;;;;;7.80;77.50;;;;;;4967650;28;20456;-45
2020/12/07 11:06:35;;;;;;;;;;;7.80;77.50;;;;;;4960201;28;19953;-45
2020/12/07 11:09:10;;;;;;;;;;;7.80;78.00;;;;;;4960444;28;19925;-44
2020/12/07 11:11:43;;;;;;;;;;;7.80;77.60;;;;;;4968164;28;19949;-45
2020/12/07 11:14:19;;;;;;;;;;;7.70;77.30;;;;;;4971004;28;20429;-45
2020/12/07 11:16:48;;;;;;;;;;;7.60;78.00;;;;;;4968007;28;19956;-44
2020/12/07 11:19:19;;;;;;;;;;;7.60;78.10;;;;;;4981113;28;19926;-44
2020/12/07 11:21:46;;;;;;;;;;;7.60;78.00;;;;;;4962029;28;19965;-45
2020/12/07 11:24:13;;;;;;;;;;;7.60;78.10;;;;;;4973574;28;20282;-45
2020/12/07 11:26:40;;;;;;;;;;;7.60;77.50;;;;;;4973029;28;20040;-44
2020/12/07 11:29:09;;;;;;;;;;;7.60;77.40;;;;;;4967923;28;19952;-45
2020/12/07 11:31:37;;;;;;;;;;;7.60;77.30;;;;;;4958815;28;19940;-46
2020/12/07 11:34:04;;;;;;;;;;;7.60;77.20;;;;;;4972871;28;20385;-45
2020/12/07 11:36:31;;;;;;;;;;;7.60;77.30;;;;;;4966648;28;19958;-42
2020/12/07 11:44:17;;;;;;;;;;;7.40;76.80;;;;;;4944400;28;19983;-46
2020/12/07 11:46:52;;;;;;;;;;;7.50;77.30;;;;;;4951352;28;19972;-44
2020/12/07 11:49:18;;;;;;;;;;;7.40;77.40;;;;;;4967255;28;20352;-45
2020/12/07 11:51:47;;;;;;;;;;;7.40;76.80;;;;;;4965624;28;20012;-43
2020/12/07 11:54:15;;;;;;;;;;;7.40;76.70;;;;;;4974240;28;19930;-45
2020/12/07 11:56:42;;;;;;;;;;;7.40;76.60;;;;;;4968447;28;20190;-45
2020/12/07 11:59:09;;;;;;;;;;;7.30;77.20;;;;;;4958385;28;20412;-45
2020/12/07 12:01:37;;;;;;;;;;;7.30;77.50;;;;;;4963564;28;19942;-45
2020/12/07 12:04:05;;;;;;;;;;;7.30;77.60;;;;;;4980409;28;19933;-45
2020/12/07 12:06:37;;;;;;;;;;;7.30;77.60;;;;;;4978161;28;19932;-45
2020/12/07 12:09:05;;;;;;;;;;;7.30;77.50;;;;;;4973036;28;19930;-45
2020/12/07 12:11:34;;;;;;;;;;;7.30;77.50;;;;;;4974355;28;19977;-45
2020/12/07 12:14:02;;;;;;;;;;;7.40;77.50;;;;;;4970520;28;19952;-45
2020/12/07 12:16:29;;;;;;;;;;;7.40;77.50;;;;;;4965296;28;19977;-42
2020/12/07 12:19:03;;;;;;;;;;;7.40;77.40;;;;;;4963760;28;19937;-45
2020/12/07 12:21:31;;;;;;;;;;;7.30;77.00;;;;;;4960007;28;20304;-45
2020/12/07 12:24:01;;;;;;;;;;;7.40;77.10;;;;;;4977076;28;19929;-44
2020/12/07 12:26:32;;;;;;;;;;;7.50;77.40;;;;;;4964816;28;20178;-45
2020/12/07 12:29:00;;;;;;;;;;;7.50;77.50;;;;;;4954286;28;20271;-44
2020/12/07 12:31:28;;;;;;;;;;;7.60;77.20;;;;;;4962112;28;19925;-43
2020/12/07 12:33:56;;;;;;;;;;;7.60;77.20;;;;;;4969534;28;19972;-43
2020/12/07 12:36:24;;;;;;;;;;;7.50;77.50;;;;;;4943120;28;20428;-42
2020/12/07 12:38:52;;;;;;;;;;;7.40;77.50;;;;;;4959533;28;20259;-46
2020/12/07 12:41:20;;;;;;;;;;;7.50;77.70;;;;;;4959252;28;20035;-44
2020/12/07 12:43:47;;;;;;;;;;;7.50;77.70;;;;;;4939124;28;21056;-45
2020/12/07 12:46:16;;;;;;;;;;;7.50;77.80;;;;;;4965286;28;19948;-45
2020/12/07 12:48:43;;;;;;;;;;;7.50;77.90;;;;;;4970218;28;19941;-45
2020/12/07 12:51:11;;;;;;;;;;;7.50;77.90;;;;;;4956094;28;19940;-44
2020/12/07 12:53:38;;;;;;;;;;;7.60;77.80;;;;;;4960472;28;20035;-46
2020/12/07 12:56:07;;;;;;;;;;;7.60;78.00;;;;;;4962363;28;20354;-45
2020/12/07 12:58:36;;;;;;;;;;;7.50;78.10;;;;;;4951650;28;19945;-44
2020/12/07 13:01:04;;;;;;;;;;;7.50;78.30;;;;;;4959000;28;19969;-45
2020/12/07 13:03:34;;;;;;;;;;;7.50;78.70;;;;;;4959199;28;19926;-45
2020/12/07 13:06:01;;;;;;;;;;;7.50;78.90;;;;;;4953825;28;19933;-43
2020/12/07 13:08:28;;;;;;;;;;;7.40;78.60;;;;;;4959326;28;20270;-43
2020/12/07 13:10:56;;;;;;;;;;;7.40;78.50;;;;;;4959235;28;20003;-45
2020/12/07 13:13:23;;;;;;;;;;;7.40;78.50;;;;;;4946753;28;20302;-43
2020/12/07 13:18:23;;;;;;;;;;;7.50;78.40;;;;;;4957974;28;20284;-44
2020/12/07 13:21:12;;;;;;;;;;;7.50;78.30;;;;;;4943085;28;19932;-45
2020/12/07 13:23:57;;;;;;;;;;;7.40;77.90;;;;;;4968027;28;19976;-43
2020/12/07 13:29:11;;;;;;;;;;;7.30;77.80;;;;;;4970476;28;20129;-42
2020/12/07 13:31:39;;;;;;;;;;;7.30;77.90;;;;;;4958807;28;19936;-43
2020/12/07 13:34:07;;;;;;;;;;;7.20;77.20;;;;;;4963007;28;20026;-44
2020/12/07 13:36:34;;;;;;;;;;;7.10;77.40;;;;;;4959985;28;20051;-44
2020/12/07 13:39:01;;;;;;;;;;;7.20;77.30;;;;;;4964261;28;19930;-42
2020/12/07 13:41:28;;;;;;;;;;;7.20;77.00;;;;;;4967084;28;19965;-43
2020/12/07 13:43:58;;;;;;;;;;;7.00;76.30;;;;;;4945301;28;19926;-44
2020/12/07 13:46:27;;;;;;;;;;;7.10;76.80;;;;;;4965056;28;19930;-45
2020/12/07 13:48:54;;;;;;;;;;;7.10;77.10;;;;;;4954700;28;19925;-45
2020/12/07 13:51:29;;;;;;;;;;;7.10;77.00;;;;;;4972092;28;19932;-44
2020/12/07 13:53:56;;;;;;;;;;;7.00;76.60;;;;;;4966527;28;19932;-45
2020/12/07 13:56:25;;;;;;;;;;;7.00;76.00;;;;;;4964419;28;19933;-43
2020/12/07 13:58:54;;;;;;;;;;;7.00;76.10;;;;;;4959655;28;19925;-44
2020/12/07 14:01:22;;;;;;;;;;;7.00;76.60;;;;;;4973397;28;19930;-45
2020/12/07 14:04:09;;;;;;;;;;;7.10;76.90;;;;;;4976629;28;21328;-44
2020/12/07 14:06:36;;;;;;;;;;;7.10;76.90;;;;;;4978336;28;20298;-44
2020/12/07 14:09:07;;;;;;;;;;;7.10;76.90;;;;;;4974133;28;19936;-45
2020/12/07 14:11:34;;;;;;;;;;;7.10;76.70;;;;;;4973159;28;20015;-45
2020/12/07 14:14:12;;;;;;;;;;;7.20;76.20;;;;;;4974297;28;19940;-44
2020/12/07 14:16:42;;;;;;;;;;;7.10;76.00;;;;;;4972474;28;19949;-42
2020/12/07 14:19:13;;;;;;;;;;;7.10;75.60;;;;;;4967388;28;20027;-45
2020/12/07 14:22:08;;;;;;;;;;;7.00;76.00;;;;;;4955981;28;20596;-43
2020/12/07 14:40:15;;;;;;;;;;;7.40;75.60;;;;;;4972436;28;19932;-43
2020/12/07 14:42:41;;;;;;;;;;;7.40;75.50;;;;;;4973634;28;19926;-46
2020/12/07 14:45:13;;;;;;;;;;;7.40;75.40;;;;;;4967715;28;19977;-46
2020/12/07 14:47:53;;;;;;;;;;;7.40;75.50;;;;;;4967688;28;19930;-45
2020/12/07 14:50:27;;;;;;;;;;;7.40;75.50;;;;;;4972727;28;19936;-43
2020/12/07 14:52:55;;;;;;;;;;;7.40;75.70;;;;;;4972393;28;20416;-45
2020/12/07 14:55:39;;;;;;;;;;;7.40;75.80;;;;;;4978597;28;20372;-45
2020/12/07 15:06:21;;;;;;;;;;;7.40;75.50;;;;;;4975768;28;19930;-46
2020/12/07 15:09:34;;;;;;;;;;;7.40;75.70;;;;;;4972268;28;19941;-43
2020/12/07 15:11:55;;;;;;;;;;;7.40;75.70;;;;;;4973652;28;19940;-45
2020/12/07 15:14:21;;;;;;;;;;;7.40;75.50;;;;;;4970984;28;19930;-45
2020/12/07 15:16:58;;;;;;;;;;;7.40;75.40;;;;;;4958497;28;19933;-45
2020/12/07 15:19:25;;;;;;;;;;;7.40;75.50;;;;;;4958663;28;20311;-44
2020/12/07 15:21:53;;;;;;;;;;;7.40;75.40;;;;;;4968802;28;19926;-45
2020/12/07 15:24:20;;;;;;;;;;;7.40;75.60;;;;;;4965791;28;20309;-44
2020/12/07 15:26:48;;;;;;;;;;;7.30;75.80;;;;;;4962178;28;19937;-45
2020/12/07 15:29:16;;;;;;;;;;;7.40;75.80;;;;;;4970662;28;19926;-44
2020/12/07 15:31:43;;;;;;;;;;;7.40;75.80;;;;;;4966029;28;20228;-45
2020/12/07 15:34:10;;;;;;;;;;;7.30;76.00;;;;;;4956654;28;20016;-45
2020/12/07 15:36:38;;;;;;;;;;;7.30;76.10;;;;;;4954054;28;19930;-45
2020/12/07 15:39:07;;;;;;;;;;;7.30;76.10;;;;;;4967277;28;19936;-45
2020/12/07 15:41:34;;;;;;;;;;;7.30;76.30;;;;;;4957500;28;19969;-44